sensor_id;sensor_type;location;lat;lon;timestamp;P1;durP1;ratioP1;P2;durP2;ratioP2
72649;SDS011;61467;50.674;4.618;2023-04-26T00:00:32;7.38;;;2.58;;
72649;SDS011;61467;50.674;4.618;2023-04-26T00:02:59;8.00;;;2.30;;
72649;SDS011;61467;50.674;4.618;2023-04-26T00:05:28;10.25;;;3.08;;
72649;SDS011;61467;50.674;4.618;2023-04-26T00:07:56;9.85;;;3.53;;
72649;SDS011;61467;50.674;4.618;2023-04-26T00:10:23;13.80;;;5.00;;
72649;SDS011;61467;50.674;4.618;2023-04-26T00:12:50;17.73;;;6.35;;
72649;SDS011;61467;50.674;4.618;2023-04-26T00:15:17;16.98;;;7.20;;
72649;SDS011;61467;50.674;4.618;2023-04-26T00:17:43;13.38;;;4.90;;
72649;SDS011;61467;50.674;4.618;2023-04-26T00:20:11;12.75;;;4.35;;
72649;SDS011;61467;50.674;4.618;2023-04-26T00:22:40;11.47;;;3.73;;
72649;SDS011;61467;50.674;4.618;2023-04-26T00:25:07;10.07;;;2.90;;
72649;SDS011;61467;50.674;4.618;2023-04-26T00:27:35;9.05;;;2.80;;
72649;SDS011;61467;50.674;4.618;2023-04-26T00:30:02;10.48;;;2.85;;
72649;SDS011;61467;50.674;4.618;2023-04-26T00:32:29;9.15;;;3.10;;
72649;SDS011;61467;50.674;4.618;2023-04-26T00:34:56;9.43;;;2.93;;
72649;SDS011;61467;50.674;4.618;2023-04-26T00:37:23;8.35;;;3.08;;
72649;SDS011;61467;50.674;4.618;2023-04-26T00:39:51;8.65;;;2.95;;
72649;SDS011;61467;50.674;4.618;2023-04-26T00:42:18;9.15;;;2.78;;
72649;SDS011;61467;50.674;4.618;2023-04-26T00:44:47;10.63;;;2.85;;
72649;SDS011;61467;50.674;4.618;2023-04-26T00:47:15;7.33;;;2.37;;
72649;SDS011;61467;50.674;4.618;2023-04-26T00:49:42;12.00;;;3.22;;
72649;SDS011;61467;50.674;4.618;2023-04-26T00:52:09;7.93;;;2.83;;
72649;SDS011;61467;50.674;4.618;2023-04-26T00:54:36;7.70;;;2.88;;
72649;SDS011;61467;50.674;4.618;2023-04-26T00:57:05;8.70;;;2.47;;
72649;SDS011;61467;50.674;4.618;2023-04-26T00:59:34;13.33;;;3.03;;
72649;SDS011;61467;50.674;4.618;2023-04-26T01:02:01;7.15;;;2.45;;
72649;SDS011;61467;50.674;4.618;2023-04-26T01:04:28;10.70;;;3.42;;
72649;SDS011;61467;50.674;4.618;2023-04-26T01:06:55;8.27;;;2.85;;
72649;SDS011;61467;50.674;4.618;2023-04-26T01:09:22;9.25;;;3.25;;
72649;SDS011;61467;50.674;4.618;2023-04-26T01:11:49;8.37;;;3.10;;
72649;SDS011;61467;50.674;4.618;2023-04-26T01:14:19;10.10;;;3.17;;
72649;SDS011;61467;50.674;4.618;2023-04-26T01:16:47;10.73;;;3.30;;
72649;SDS011;61467;50.674;4.618;2023-04-26T01:19:15;8.27;;;2.90;;
72649;SDS011;61467;50.674;4.618;2023-04-26T01:21:42;8.63;;;2.75;;
72649;SDS011;61467;50.674;4.618;2023-04-26T01:24:11;9.97;;;3.33;;
72649;SDS011;61467;50.674;4.618;2023-04-26T01:26:39;9.45;;;3.63;;
72649;SDS011;61467;50.674;4.618;2023-04-26T01:29:13;8.70;;;3.28;;
72649;SDS011;61467;50.674;4.618;2023-04-26T01:31:41;11.98;;;3.85;;
72649;SDS011;61467;50.674;4.618;2023-04-26T01:34:08;12.20;;;3.97;;
72649;SDS011;61467;50.674;4.618;2023-04-26T01:36:35;12.10;;;3.50;;
72649;SDS011;61467;50.674;4.618;2023-04-26T01:39:02;10.27;;;3.42;;
72649;SDS011;61467;50.674;4.618;2023-04-26T01:41:30;10.45;;;3.40;;
72649;SDS011;61467;50.674;4.618;2023-04-26T01:43:57;11.23;;;3.10;;
72649;SDS011;61467;50.674;4.618;2023-04-26T01:46:25;9.27;;;3.33;;
72649;SDS011;61467;50.674;4.618;2023-04-26T01:48:52;11.67;;;3.07;;
72649;SDS011;61467;50.674;4.618;2023-04-26T01:51:19;8.25;;;3.10;;
72649;SDS011;61467;50.674;4.618;2023-04-26T01:53:45;8.02;;;3.33;;
72649;SDS011;61467;50.674;4.618;2023-04-26T01:56:12;7.85;;;2.97;;
72649;SDS011;61467;50.674;4.618;2023-04-26T01:58:41;8.18;;;3.50;;
72649;SDS011;61467;50.674;4.618;2023-04-26T02:01:08;7.83;;;3.17;;
72649;SDS011;61467;50.674;4.618;2023-04-26T02:03:35;12.35;;;3.47;;
72649;SDS011;61467;50.674;4.618;2023-04-26T02:06:02;11.63;;;3.80;;
72649;SDS011;61467;50.674;4.618;2023-04-26T02:08:29;11.55;;;3.30;;
72649;SDS011;61467;50.674;4.618;2023-04-26T02:10:56;12.38;;;4.30;;
72649;SDS011;61467;50.674;4.618;2023-04-26T02:13:23;8.73;;;3.50;;
72649;SDS011;61467;50.674;4.618;2023-04-26T02:15:51;13.13;;;4.05;;
72649;SDS011;61467;50.674;4.618;2023-04-26T02:18:18;10.82;;;4.20;;
72649;SDS011;61467;50.674;4.618;2023-04-26T02:20:46;10.52;;;3.72;;
72649;SDS011;61467;50.674;4.618;2023-04-26T02:23:13;9.45;;;4.20;;
72649;SDS011;61467;50.674;4.618;2023-04-26T02:25:40;9.40;;;4.10;;
72649;SDS011;61467;50.674;4.618;2023-04-26T02:28:08;11.75;;;4.32;;
72649;SDS011;61467;50.674;4.618;2023-04-26T02:30:35;11.68;;;4.18;;
72649;SDS011;61467;50.674;4.618;2023-04-26T02:33:03;11.90;;;3.88;;
72649;SDS011;61467;50.674;4.618;2023-04-26T02:35:30;8.23;;;3.60;;
72649;SDS011;61467;50.674;4.618;2023-04-26T02:37:56;9.77;;;3.57;;
72649;SDS011;61467;50.674;4.618;2023-04-26T02:40:23;7.50;;;2.90;;
72649;SDS011;61467;50.674;4.618;2023-04-26T02:42:50;8.93;;;3.80;;
72649;SDS011;61467;50.674;4.618;2023-04-26T02:45:17;8.63;;;3.20;;
72649;SDS011;61467;50.674;4.618;2023-04-26T02:47:44;11.13;;;3.40;;
72649;SDS011;61467;50.674;4.618;2023-04-26T02:50:12;8.27;;;3.63;;
72649;SDS011;61467;50.674;4.618;2023-04-26T02:52:39;8.60;;;3.30;;
72649;SDS011;61467;50.674;4.618;2023-04-26T02:55:06;11.93;;;4.05;;
72649;SDS011;61467;50.674;4.618;2023-04-26T02:57:36;9.30;;;3.28;;
72649;SDS011;61467;50.674;4.618;2023-04-26T03:00:03;10.48;;;4.07;;
72649;SDS011;61467;50.674;4.618;2023-04-26T03:02:32;11.23;;;3.97;;
72649;SDS011;61467;50.674;4.618;2023-04-26T03:04:58;15.23;;;4.85;;
72649;SDS011;61467;50.674;4.618;2023-04-26T03:07:27;12.23;;;5.05;;
72649;SDS011;61467;50.674;4.618;2023-04-26T03:09:55;15.00;;;5.13;;
72649;SDS011;61467;50.674;4.618;2023-04-26T03:12:22;11.90;;;4.32;;
72649;SDS011;61467;50.674;4.618;2023-04-26T03:14:49;11.93;;;4.10;;
72649;SDS011;61467;50.674;4.618;2023-04-26T03:17:15;14.93;;;4.72;;
72649;SDS011;61467;50.674;4.618;2023-04-26T03:19:42;10.93;;;4.38;;
72649;SDS011;61467;50.674;4.618;2023-04-26T03:22:09;11.43;;;4.40;;
72649;SDS011;61467;50.674;4.618;2023-04-26T03:24:41;11.85;;;3.70;;
72649;SDS011;61467;50.674;4.618;2023-04-26T03:27:08;9.77;;;4.40;;
72649;SDS011;61467;50.674;4.618;2023-04-26T03:29:35;10.40;;;4.00;;
72649;SDS011;61467;50.674;4.618;2023-04-26T03:32:01;11.27;;;4.50;;
72649;SDS011;61467;50.674;4.618;2023-04-26T03:34:28;11.38;;;3.83;;
72649;SDS011;61467;50.674;4.618;2023-04-26T03:36:55;9.48;;;3.47;;
72649;SDS011;61467;50.674;4.618;2023-04-26T03:39:22;11.37;;;3.43;;
72649;SDS011;61467;50.674;4.618;2023-04-26T03:41:50;9.40;;;3.40;;
72649;SDS011;61467;50.674;4.618;2023-04-26T03:44:17;12.40;;;4.35;;
72649;SDS011;61467;50.674;4.618;2023-04-26T03:46:44;11.38;;;4.10;;
72649;SDS011;61467;50.674;4.618;2023-04-26T03:49:11;11.45;;;4.60;;
72649;SDS011;61467;50.674;4.618;2023-04-26T03:51:37;12.90;;;4.37;;
72649;SDS011;61467;50.674;4.618;2023-04-26T03:54:04;12.10;;;4.13;;
72649;SDS011;61467;50.674;4.618;2023-04-26T03:56:31;11.60;;;3.72;;
72649;SDS011;61467;50.674;4.618;2023-04-26T03:58:59;10.77;;;3.72;;
72649;SDS011;61467;50.674;4.618;2023-04-26T04:01:26;10.80;;;4.07;;
72649;SDS011;61467;50.674;4.618;2023-04-26T04:03:53;10.43;;;3.63;;
72649;SDS011;61467;50.674;4.618;2023-04-26T04:06:20;8.00;;;3.30;;
72649;SDS011;61467;50.674;4.618;2023-04-26T04:08:47;9.02;;;3.83;;
72649;SDS011;61467;50.674;4.618;2023-04-26T04:11:14;9.50;;;4.10;;
72649;SDS011;61467;50.674;4.618;2023-04-26T04:13:41;9.40;;;3.40;;
72649;SDS011;61467;50.674;4.618;2023-04-26T04:16:09;8.20;;;3.23;;
72649;SDS011;61467;50.674;4.618;2023-04-26T04:18:36;11.60;;;3.75;;
72649;SDS011;61467;50.674;4.618;2023-04-26T04:21:03;13.15;;;4.00;;
72649;SDS011;61467;50.674;4.618;2023-04-26T04:23:29;8.57;;;3.30;;
72649;SDS011;61467;50.674;4.618;2023-04-26T04:25:56;9.13;;;3.25;;
72649;SDS011;61467;50.674;4.618;2023-04-26T04:28:23;8.70;;;3.67;;
72649;SDS011;61467;50.674;4.618;2023-04-26T04:30:50;10.38;;;3.65;;
72649;SDS011;61467;50.674;4.618;2023-04-26T04:33:19;9.88;;;3.85;;
72649;SDS011;61467;50.674;4.618;2023-04-26T04:35:45;9.23;;;3.40;;
72649;SDS011;61467;50.674;4.618;2023-04-26T04:38:12;10.75;;;4.28;;
72649;SDS011;61467;50.674;4.618;2023-04-26T04:40:39;9.63;;;3.87;;
72649;SDS011;61467;50.674;4.618;2023-04-26T04:43:07;9.38;;;3.95;;
72649;SDS011;61467;50.674;4.618;2023-04-26T04:45:34;13.80;;;4.78;;
72649;SDS011;61467;50.674;4.618;2023-04-26T04:48:03;10.82;;;4.18;;
72649;SDS011;61467;50.674;4.618;2023-04-26T04:50:31;11.88;;;4.90;;
72649;SDS011;61467;50.674;4.618;2023-04-26T04:52:58;9.87;;;4.07;;
72649;SDS011;61467;50.674;4.618;2023-04-26T04:55:25;15.00;;;4.57;;
72649;SDS011;61467;50.674;4.618;2023-04-26T04:57:55;10.20;;;4.30;;
72649;SDS011;61467;50.674;4.618;2023-04-26T05:00:21;11.48;;;4.30;;
72649;SDS011;61467;50.674;4.618;2023-04-26T05:02:48;13.18;;;4.28;;
72649;SDS011;61467;50.674;4.618;2023-04-26T05:05:15;11.00;;;4.87;;
72649;SDS011;61467;50.674;4.618;2023-04-26T05:07:43;13.18;;;4.50;;
72649;SDS011;61467;50.674;4.618;2023-04-26T05:10:11;15.00;;;5.00;;
72649;SDS011;61467;50.674;4.618;2023-04-26T05:12:38;12.27;;;4.10;;
72649;SDS011;61467;50.674;4.618;2023-04-26T05:15:05;11.10;;;3.92;;
72649;SDS011;61467;50.674;4.618;2023-04-26T05:17:33;15.20;;;5.00;;
72649;SDS011;61467;50.674;4.618;2023-04-26T05:20:00;13.63;;;4.78;;
72649;SDS011;61467;50.674;4.618;2023-04-26T05:22:31;14.40;;;5.18;;
72649;SDS011;61467;50.674;4.618;2023-04-26T05:25:02;15.23;;;4.55;;
72649;SDS011;61467;50.674;4.618;2023-04-26T05:27:29;14.13;;;4.97;;
72649;SDS011;61467;50.674;4.618;2023-04-26T05:29:56;14.97;;;4.63;;
72649;SDS011;61467;50.674;4.618;2023-04-26T05:32:23;13.43;;;4.60;;
72649;SDS011;61467;50.674;4.618;2023-04-26T05:34:50;16.77;;;5.05;;
72649;SDS011;61467;50.674;4.618;2023-04-26T05:37:17;17.77;;;4.88;;
72649;SDS011;61467;50.674;4.618;2023-04-26T05:39:44;16.15;;;5.40;;
72649;SDS011;61467;50.674;4.618;2023-04-26T05:42:12;13.27;;;4.87;;
72649;SDS011;61467;50.674;4.618;2023-04-26T05:44:38;16.35;;;5.28;;
72649;SDS011;61467;50.674;4.618;2023-04-26T05:47:07;13.80;;;5.05;;
72649;SDS011;61467;50.674;4.618;2023-04-26T05:49:35;16.80;;;5.15;;
72649;SDS011;61467;50.674;4.618;2023-04-26T05:52:02;13.95;;;5.50;;
72649;SDS011;61467;50.674;4.618;2023-04-26T05:54:29;14.67;;;5.13;;
72649;SDS011;61467;50.674;4.618;2023-04-26T05:56:57;12.27;;;4.60;;
72649;SDS011;61467;50.674;4.618;2023-04-26T05:59:25;19.55;;;6.38;;
72649;SDS011;61467;50.674;4.618;2023-04-26T06:01:52;19.23;;;6.90;;
72649;SDS011;61467;50.674;4.618;2023-04-26T06:04:18;21.80;;;6.88;;
72649;SDS011;61467;50.674;4.618;2023-04-26T06:06:45;19.67;;;6.53;;
72649;SDS011;61467;50.674;4.618;2023-04-26T06:09:13;17.60;;;6.57;;
72649;SDS011;61467;50.674;4.618;2023-04-26T06:11:40;18.75;;;6.90;;
72649;SDS011;61467;50.674;4.618;2023-04-26T06:14:07;19.88;;;6.05;;
72649;SDS011;61467;50.674;4.618;2023-04-26T06:16:35;18.35;;;6.18;;
72649;SDS011;61467;50.674;4.618;2023-04-26T06:19:02;17.37;;;5.23;;
72649;SDS011;61467;50.674;4.618;2023-04-26T06:21:29;13.77;;;5.55;;
72649;SDS011;61467;50.674;4.618;2023-04-26T06:23:56;20.45;;;5.40;;
72649;SDS011;61467;50.674;4.618;2023-04-26T06:26:22;15.20;;;5.28;;
72649;SDS011;61467;50.674;4.618;2023-04-26T06:28:49;19.40;;;5.43;;
72649;SDS011;61467;50.674;4.618;2023-04-26T06:31:16;15.33;;;6.17;;
72649;SDS011;61467;50.674;4.618;2023-04-26T06:33:47;15.82;;;6.05;;
72649;SDS011;61467;50.674;4.618;2023-04-26T06:36:13;18.52;;;6.07;;
72649;SDS011;61467;50.674;4.618;2023-04-26T06:38:41;15.38;;;5.57;;
72649;SDS011;61467;50.674;4.618;2023-04-26T06:41:07;15.13;;;5.22;;
72649;SDS011;61467;50.674;4.618;2023-04-26T06:43:34;11.33;;;4.37;;
72649;SDS011;61467;50.674;4.618;2023-04-26T06:46:01;11.75;;;4.10;;
72649;SDS011;61467;50.674;4.618;2023-04-26T06:48:33;12.63;;;4.55;;
72649;SDS011;61467;50.674;4.618;2023-04-26T06:51:04;14.90;;;4.97;;
72649;SDS011;61467;50.674;4.618;2023-04-26T06:53:32;10.82;;;4.35;;
72649;SDS011;61467;50.674;4.618;2023-04-26T06:55:59;13.90;;;4.77;;
72649;SDS011;61467;50.674;4.618;2023-04-26T06:58:26;14.68;;;5.22;;
72649;SDS011;61467;50.674;4.618;2023-04-26T07:00:53;11.93;;;4.65;;
72649;SDS011;61467;50.674;4.618;2023-04-26T07:03:20;13.52;;;4.50;;
72649;SDS011;61467;50.674;4.618;2023-04-26T07:05:47;15.27;;;4.78;;
72649;SDS011;61467;50.674;4.618;2023-04-26T07:08:15;17.77;;;5.37;;
72649;SDS011;61467;50.674;4.618;2023-04-26T07:10:42;12.85;;;4.70;;
72649;SDS011;61467;50.674;4.618;2023-04-26T07:13:09;17.48;;;5.25;;
72649;SDS011;61467;50.674;4.618;2023-04-26T07:15:36;14.63;;;4.95;;
72649;SDS011;61467;50.674;4.618;2023-04-26T07:18:03;13.32;;;4.88;;
72649;SDS011;61467;50.674;4.618;2023-04-26T07:20:30;12.67;;;4.30;;
72649;SDS011;61467;50.674;4.618;2023-04-26T07:22:57;13.80;;;4.75;;
72649;SDS011;61467;50.674;4.618;2023-04-26T07:25:25;15.93;;;5.50;;
72649;SDS011;61467;50.674;4.618;2023-04-26T07:27:52;11.23;;;4.43;;
72649;SDS011;61467;50.674;4.618;2023-04-26T07:30:18;10.73;;;4.65;;
72649;SDS011;61467;50.674;4.618;2023-04-26T07:32:45;9.37;;;3.50;;
72649;SDS011;61467;50.674;4.618;2023-04-26T07:35:12;14.40;;;4.72;;
72649;SDS011;61467;50.674;4.618;2023-04-26T07:37:40;13.90;;;4.25;;
72649;SDS011;61467;50.674;4.618;2023-04-26T07:40:09;8.65;;;3.10;;
72649;SDS011;61467;50.674;4.618;2023-04-26T07:42:39;12.32;;;3.60;;
72649;SDS011;61467;50.674;4.618;2023-04-26T07:45:06;14.60;;;3.60;;
72649;SDS011;61467;50.674;4.618;2023-04-26T07:47:33;19.45;;;4.90;;
72649;SDS011;61467;50.674;4.618;2023-04-26T07:50:00;12.45;;;3.90;;
72649;SDS011;61467;50.674;4.618;2023-04-26T07:52:27;9.23;;;3.70;;
72649;SDS011;61467;50.674;4.618;2023-04-26T07:54:54;9.77;;;3.42;;
72649;SDS011;61467;50.674;4.618;2023-04-26T07:57:21;12.63;;;3.00;;
72649;SDS011;61467;50.674;4.618;2023-04-26T07:59:49;8.68;;;3.00;;
72649;SDS011;61467;50.674;4.618;2023-04-26T08:02:18;11.55;;;3.25;;
72649;SDS011;61467;50.674;4.618;2023-04-26T08:04:49;11.27;;;3.28;;
72649;SDS011;61467;50.674;4.618;2023-04-26T08:07:16;16.00;;;3.10;;
72649;SDS011;61467;50.674;4.618;2023-04-26T08:09:44;9.53;;;2.70;;
72649;SDS011;61467;50.674;4.618;2023-04-26T08:12:13;12.70;;;3.35;;
72649;SDS011;61467;50.674;4.618;2023-04-26T08:14:40;9.65;;;3.03;;
72649;SDS011;61467;50.674;4.618;2023-04-26T08:17:08;9.80;;;3.33;;
72649;SDS011;61467;50.674;4.618;2023-04-26T08:19:35;9.43;;;2.78;;
72649;SDS011;61467;50.674;4.618;2023-04-26T08:22:02;10.10;;;2.60;;
72649;SDS011;61467;50.674;4.618;2023-04-26T08:24:30;12.00;;;3.08;;
72649;SDS011;61467;50.674;4.618;2023-04-26T08:27:00;9.00;;;2.55;;
72649;SDS011;61467;50.674;4.618;2023-04-26T08:29:27;9.98;;;2.80;;
72649;SDS011;61467;50.674;4.618;2023-04-26T08:31:55;9.35;;;2.40;;
72649;SDS011;61467;50.674;4.618;2023-04-26T08:34:23;9.80;;;2.40;;
72649;SDS011;61467;50.674;4.618;2023-04-26T08:36:52;8.38;;;2.20;;
72649;SDS011;61467;50.674;4.618;2023-04-26T08:39:19;9.75;;;2.53;;
72649;SDS011;61467;50.674;4.618;2023-04-26T08:41:48;11.50;;;2.63;;
72649;SDS011;61467;50.674;4.618;2023-04-26T08:44:20;7.38;;;2.38;;
72649;SDS011;61467;50.674;4.618;2023-04-26T08:46:51;9.10;;;2.10;;
72649;SDS011;61467;50.674;4.618;2023-04-26T08:49:30;5.95;;;2.20;;
72649;SDS011;61467;50.674;4.618;2023-04-26T08:52:07;12.45;;;2.60;;
72649;SDS011;61467;50.674;4.618;2023-04-26T08:54:36;8.05;;;2.08;;
72649;SDS011;61467;50.674;4.618;2023-04-26T08:57:03;7.50;;;2.80;;
72649;SDS011;61467;50.674;4.618;2023-04-26T08:59:32;7.93;;;2.80;;
72649;SDS011;61467;50.674;4.618;2023-04-26T09:01:59;10.07;;;2.55;;
72649;SDS011;61467;50.674;4.618;2023-04-26T09:04:28;11.40;;;2.88;;
72649;SDS011;61467;50.674;4.618;2023-04-26T09:06:55;10.40;;;2.47;;
72649;SDS011;61467;50.674;4.618;2023-04-26T09:09:25;10.13;;;3.20;;
72649;SDS011;61467;50.674;4.618;2023-04-26T09:11:56;6.70;;;2.17;;
72649;SDS011;61467;50.674;4.618;2023-04-26T09:14:24;9.20;;;2.58;;
72649;SDS011;61467;50.674;4.618;2023-04-26T09:16:51;8.38;;;2.33;;
72649;SDS011;61467;50.674;4.618;2023-04-26T09:19:29;8.23;;;2.20;;
72649;SDS011;61467;50.674;4.618;2023-04-26T09:22:01;9.20;;;2.90;;
72649;SDS011;61467;50.674;4.618;2023-04-26T09:24:28;6.53;;;1.90;;
72649;SDS011;61467;50.674;4.618;2023-04-26T09:27:11;6.97;;;1.83;;
72649;SDS011;61467;50.674;4.618;2023-04-26T09:29:38;5.90;;;1.70;;
72649;SDS011;61467;50.674;4.618;2023-04-26T09:32:05;8.65;;;2.03;;
72649;SDS011;61467;50.674;4.618;2023-04-26T09:34:44;7.50;;;2.20;;
72649;SDS011;61467;50.674;4.618;2023-04-26T09:37:11;7.73;;;2.10;;
72649;SDS011;61467;50.674;4.618;2023-04-26T09:39:39;6.68;;;1.90;;
72649;SDS011;61467;50.674;4.618;2023-04-26T09:42:07;7.60;;;2.28;;
72649;SDS011;61467;50.674;4.618;2023-04-26T09:44:35;7.97;;;2.28;;
72649;SDS011;61467;50.674;4.618;2023-04-26T09:47:03;11.52;;;2.70;;
72649;SDS011;61467;50.674;4.618;2023-04-26T09:49:42;7.17;;;2.30;;
72649;SDS011;61467;50.674;4.618;2023-04-26T09:52:13;8.93;;;2.75;;
72649;SDS011;61467;50.674;4.618;2023-04-26T09:54:42;8.85;;;2.55;;
72649;SDS011;61467;50.674;4.618;2023-04-26T09:57:10;8.70;;;2.30;;
72649;SDS011;61467;50.674;4.618;2023-04-26T09:59:38;7.95;;;2.55;;
72649;SDS011;61467;50.674;4.618;2023-04-26T10:02:15;10.30;;;2.40;;
72649;SDS011;61467;50.674;4.618;2023-04-26T10:04:45;8.65;;;2.22;;
72649;SDS011;61467;50.674;4.618;2023-04-26T10:07:14;7.20;;;2.50;;
72649;SDS011;61467;50.674;4.618;2023-04-26T10:09:41;8.48;;;2.03;;
72649;SDS011;61467;50.674;4.618;2023-04-26T10:12:09;7.78;;;2.30;;
72649;SDS011;61467;50.674;4.618;2023-04-26T10:14:36;10.30;;;2.53;;
72649;SDS011;61467;50.674;4.618;2023-04-26T10:17:03;6.07;;;2.50;;
72649;SDS011;61467;50.674;4.618;2023-04-26T10:19:31;8.27;;;2.50;;
72649;SDS011;61467;50.674;4.618;2023-04-26T10:22:01;6.88;;;2.15;;
72649;SDS011;61467;50.674;4.618;2023-04-26T10:24:31;7.40;;;1.90;;
72649;SDS011;61467;50.674;4.618;2023-04-26T10:27:02;7.90;;;2.33;;
72649;SDS011;61467;50.674;4.618;2023-04-26T10:32:35;10.60;;;2.58;;
72649;SDS011;61467;50.674;4.618;2023-04-26T10:36:00;7.20;;;2.33;;
72649;SDS011;61467;50.674;4.618;2023-04-26T10:38:39;7.05;;;2.30;;
72649;SDS011;61467;50.674;4.618;2023-04-26T10:43:57;6.55;;;1.95;;
72649;SDS011;61467;50.674;4.618;2023-04-26T10:46:35;7.93;;;2.28;;
72649;SDS011;61467;50.674;4.618;2023-04-26T10:49:13;10.40;;;1.88;;
72649;SDS011;61467;50.674;4.618;2023-04-26T10:51:55;5.07;;;2.05;;
72649;SDS011;61467;50.674;4.618;2023-04-26T10:54:47;5.93;;;1.77;;
72649;SDS011;61467;50.674;4.618;2023-04-26T10:57:18;9.30;;;2.03;;
72649;SDS011;61467;50.674;4.618;2023-04-26T11:02:52;9.32;;;2.25;;
72649;SDS011;61467;50.674;4.618;2023-04-26T11:05:34;8.98;;;2.30;;
72649;SDS011;61467;50.674;4.618;2023-04-26T11:08:03;8.10;;;2.20;;
72649;SDS011;61467;50.674;4.618;2023-04-26T11:10:32;10.68;;;2.50;;
72649;SDS011;61467;50.674;4.618;2023-04-26T11:12:59;7.70;;;1.98;;
72649;SDS011;61467;50.674;4.618;2023-04-26T11:15:28;6.28;;;2.08;;
72649;SDS011;61467;50.674;4.618;2023-04-26T11:17:56;7.07;;;2.03;;
72649;SDS011;61467;50.674;4.618;2023-04-26T11:20:26;9.70;;;2.23;;
72649;SDS011;61467;50.674;4.618;2023-04-26T11:22:54;6.68;;;2.15;;
72649;SDS011;61467;50.674;4.618;2023-04-26T11:25:23;7.13;;;2.45;;
72649;SDS011;61467;50.674;4.618;2023-04-26T11:27:52;7.65;;;2.25;;
72649;SDS011;61467;50.674;4.618;2023-04-26T11:30:22;8.20;;;2.83;;
72649;SDS011;61467;50.674;4.618;2023-04-26T11:32:49;8.33;;;2.30;;
72649;SDS011;61467;50.674;4.618;2023-04-26T11:35:18;6.40;;;2.00;;
72649;SDS011;61467;50.674;4.618;2023-04-26T11:37:47;6.88;;;2.08;;
72649;SDS011;61467;50.674;4.618;2023-04-26T11:40:16;6.07;;;2.10;;
72649;SDS011;61467;50.674;4.618;2023-04-26T11:42:43;6.93;;;2.50;;
72649;SDS011;61467;50.674;4.618;2023-04-26T11:45:13;6.67;;;2.43;;
72649;SDS011;61467;50.674;4.618;2023-04-26T11:47:41;6.30;;;2.20;;
72649;SDS011;61467;50.674;4.618;2023-04-26T11:50:09;7.10;;;2.60;;
72649;SDS011;61467;50.674;4.618;2023-04-26T11:52:37;7.82;;;2.50;;
72649;SDS011;61467;50.674;4.618;2023-04-26T11:55:05;6.97;;;2.30;;
72649;SDS011;61467;50.674;4.618;2023-04-26T11:57:34;6.27;;;2.40;;
72649;SDS011;61467;50.674;4.618;2023-04-26T12:00:12;6.20;;;2.10;;
72649;SDS011;61467;50.674;4.618;2023-04-26T12:02:43;8.75;;;2.53;;
72649;SDS011;61467;50.674;4.618;2023-04-26T12:05:11;6.93;;;2.10;;
72649;SDS011;61467;50.674;4.618;2023-04-26T12:07:48;6.53;;;2.45;;
72649;SDS011;61467;50.674;4.618;2023-04-26T12:10:17;6.93;;;2.50;;
72649;SDS011;61467;50.674;4.618;2023-04-26T12:12:48;6.60;;;2.13;;
72649;SDS011;61467;50.674;4.618;2023-04-26T12:15:17;6.40;;;2.10;;
72649;SDS011;61467;50.674;4.618;2023-04-26T12:17:51;8.45;;;2.40;;
72649;SDS011;61467;50.674;4.618;2023-04-26T12:20:24;8.70;;;2.65;;
72649;SDS011;61467;50.674;4.618;2023-04-26T12:23:04;7.07;;;2.00;;
72649;SDS011;61467;50.674;4.618;2023-04-26T12:25:32;10.07;;;2.13;;
72649;SDS011;61467;50.674;4.618;2023-04-26T12:28:03;8.80;;;2.60;;
72649;SDS011;61467;50.674;4.618;2023-04-26T12:30:37;6.18;;;2.03;;
72649;SDS011;61467;50.674;4.618;2023-04-26T12:33:05;9.07;;;2.03;;
72649;SDS011;61467;50.674;4.618;2023-04-26T12:35:32;7.70;;;2.27;;
72649;SDS011;61467;50.674;4.618;2023-04-26T12:37:59;6.30;;;2.30;;
72649;SDS011;61467;50.674;4.618;2023-04-26T12:40:26;6.75;;;2.38;;
72649;SDS011;61467;50.674;4.618;2023-04-26T12:42:54;7.13;;;2.25;;
72649;SDS011;61467;50.674;4.618;2023-04-26T12:45:22;13.02;;;2.83;;
72649;SDS011;61467;50.674;4.618;2023-04-26T12:47:51;7.90;;;2.00;;
72649;SDS011;61467;50.674;4.618;2023-04-26T12:50:18;6.65;;;2.30;;
72649;SDS011;61467;50.674;4.618;2023-04-26T12:52:45;8.40;;;2.22;;
72649;SDS011;61467;50.674;4.618;2023-04-26T12:55:13;6.70;;;1.95;;
72649;SDS011;61467;50.674;4.618;2023-04-26T12:57:41;6.15;;;2.20;;
72649;SDS011;61467;50.674;4.618;2023-04-26T13:00:11;7.70;;;2.00;;
72649;SDS011;61467;50.674;4.618;2023-04-26T13:02:39;6.88;;;2.15;;
72649;SDS011;61467;50.674;4.618;2023-04-26T13:05:08;6.07;;;2.08;;
72649;SDS011;61467;50.674;4.618;2023-04-26T13:07:36;7.30;;;2.38;;
72649;SDS011;61467;50.674;4.618;2023-04-26T13:10:04;9.63;;;2.58;;
72649;SDS011;61467;50.674;4.618;2023-04-26T13:12:33;8.10;;;2.27;;
72649;SDS011;61467;50.674;4.618;2023-04-26T13:15:00;7.05;;;2.40;;
72649;SDS011;61467;50.674;4.618;2023-04-26T13:17:27;9.38;;;2.55;;
72649;SDS011;61467;50.674;4.618;2023-04-26T13:19:53;7.10;;;2.00;;
72649;SDS011;61467;50.674;4.618;2023-04-26T13:22:22;6.95;;;1.98;;
72649;SDS011;61467;50.674;4.618;2023-04-26T13:24:48;9.67;;;2.10;;
72649;SDS011;61467;50.674;4.618;2023-04-26T13:27:15;6.18;;;1.92;;
72649;SDS011;61467;50.674;4.618;2023-04-26T13:29:42;8.25;;;2.50;;
72649;SDS011;61467;50.674;4.618;2023-04-26T13:32:09;5.53;;;2.05;;
72649;SDS011;61467;50.674;4.618;2023-04-26T13:34:36;9.77;;;2.50;;
72649;SDS011;61467;50.674;4.618;2023-04-26T13:37:03;10.57;;;3.30;;
72649;SDS011;61467;50.674;4.618;2023-04-26T13:39:32;7.53;;;2.38;;
72649;SDS011;61467;50.674;4.618;2023-04-26T13:41:58;7.65;;;2.53;;
72649;SDS011;61467;50.674;4.618;2023-04-26T13:44:27;7.03;;;2.50;;
72649;SDS011;61467;50.674;4.618;2023-04-26T13:46:55;7.28;;;2.35;;
72649;SDS011;61467;50.674;4.618;2023-04-26T13:49:22;7.43;;;2.13;;
72649;SDS011;61467;50.674;4.618;2023-04-26T13:51:50;6.20;;;2.20;;
72649;SDS011;61467;50.674;4.618;2023-04-26T13:54:17;6.65;;;2.35;;
72649;SDS011;61467;50.674;4.618;2023-04-26T13:56:47;7.53;;;2.13;;
72649;SDS011;61467;50.674;4.618;2023-04-26T13:59:14;8.52;;;2.50;;
72649;SDS011;61467;50.674;4.618;2023-04-26T14:01:42;7.63;;;2.40;;
72649;SDS011;61467;50.674;4.618;2023-04-26T14:04:09;6.93;;;2.13;;
72649;SDS011;61467;50.674;4.618;2023-04-26T14:06:36;6.55;;;2.35;;
72649;SDS011;61467;50.674;4.618;2023-04-26T14:09:03;8.20;;;2.90;;
72649;SDS011;61467;50.674;4.618;2023-04-26T14:11:31;6.70;;;2.45;;
72649;SDS011;61467;50.674;4.618;2023-04-26T14:13:59;8.30;;;1.97;;
72649;SDS011;61467;50.674;4.618;2023-04-26T14:16:26;7.05;;;2.13;;
72649;SDS011;61467;50.674;4.618;2023-04-26T14:18:52;7.95;;;2.35;;
72649;SDS011;61467;50.674;4.618;2023-04-26T14:21:19;6.32;;;2.20;;
72649;SDS011;61467;50.674;4.618;2023-04-26T14:23:46;7.75;;;2.30;;
72649;SDS011;61467;50.674;4.618;2023-04-26T14:26:13;7.03;;;2.50;;
72649;SDS011;61467;50.674;4.618;2023-04-26T14:28:41;6.45;;;2.15;;
72649;SDS011;61467;50.674;4.618;2023-04-26T14:31:09;7.03;;;2.35;;
72649;SDS011;61467;50.674;4.618;2023-04-26T14:33:37;7.07;;;2.22;;
72649;SDS011;61467;50.674;4.618;2023-04-26T14:36:04;5.95;;;2.08;;
72649;SDS011;61467;50.674;4.618;2023-04-26T14:38:32;8.33;;;2.10;;
72649;SDS011;61467;50.674;4.618;2023-04-26T14:40:59;6.18;;;1.90;;
72649;SDS011;61467;50.674;4.618;2023-04-26T14:43:26;8.00;;;2.38;;
72649;SDS011;61467;50.674;4.618;2023-04-26T14:45:53;8.35;;;2.05;;
72649;SDS011;61467;50.674;4.618;2023-04-26T14:48:21;7.07;;;2.42;;
72649;SDS011;61467;50.674;4.618;2023-04-26T14:50:48;8.70;;;2.50;;
72649;SDS011;61467;50.674;4.618;2023-04-26T14:53:15;6.30;;;1.98;;
72649;SDS011;61467;50.674;4.618;2023-04-26T14:55:41;6.68;;;2.47;;
72649;SDS011;61467;50.674;4.618;2023-04-26T14:58:08;6.43;;;2.30;;